sensor_id;sensor_type;location;lat;lon;timestamp;pressure;altitude;pressure_sealevel;temperature;humidity
9969;BME280;5025;48.890;9.278;2024-01-07T00:00:33;98193.88;;;5.50;99.02
9969;BME280;5025;48.890;9.278;2024-01-07T00:02:58;98198.19;;;5.51;98.88
9969;BME280;5025;48.890;9.278;2024-01-07T00:05:24;98195.72;;;5.49;98.87
9969;BME280;5025;48.890;9.278;2024-01-07T00:07:49;98190.38;;;5.49;98.95
9969;BME280;5025;48.890;9.278;2024-01-07T00:10:16;98193.06;;;5.49;99.01
9969;BME280;5025;48.890;9.278;2024-01-07T00:12:41;98194.50;;;5.52;99.19
9969;BME280;5025;48.890;9.278;2024-01-07T00:15:06;98200.66;;;5.52;99.02
9969;BME280;5025;48.890;9.278;2024-01-07T00:17:32;98194.50;;;5.52;98.99
9969;BME280;5025;48.890;9.278;2024-01-07T00:19:57;98197.19;;;5.52;98.83
9969;BME280;5025;48.890;9.278;2024-01-07T00:22:22;98201.47;;;5.53;99.08
9969;BME280;5025;48.890;9.278;2024-01-07T00:24:48;98203.56;;;5.51;99.01
9969;BME280;5025;48.890;9.278;2024-01-07T00:27:13;98205.22;;;5.52;99.16
9969;BME280;5025;48.890;9.278;2024-01-07T00:29:38;98203.56;;;5.51;98.95
9969;BME280;5025;48.890;9.278;2024-01-07T00:32:03;98199.00;;;5.51;98.81
9969;BME280;5025;48.890;9.278;2024-01-07T00:34:29;98200.66;;;5.52;99.09
9969;BME280;5025;48.890;9.278;2024-01-07T00:36:54;98201.09;;;5.49;99.24
9969;BME280;5025;48.890;9.278;2024-01-07T00:39:20;98194.06;;;5.48;99.34
9969;BME280;5025;48.890;9.278;2024-01-07T00:41:46;98201.91;;;5.50;99.38
9969;BME280;5025;48.890;9.278;2024-01-07T00:44:11;98198.41;;;5.49;99.49
9969;BME280;5025;48.890;9.278;2024-01-07T00:46:36;98198.19;;;5.51;99.28
9969;BME280;5025;48.890;9.278;2024-01-07T00:49:01;98199.00;;;5.51;99.42
9969;BME280;5025;48.890;9.278;2024-01-07T00:51:27;98199.00;;;5.51;99.07
9969;BME280;5025;48.890;9.278;2024-01-07T00:53:52;98199.22;;;5.50;99.35
9969;BME280;5025;48.890;9.278;2024-01-07T00:56:17;98199.84;;;5.52;99.50
9969;BME280;5025;48.890;9.278;2024-01-07T00:58:42;98199.44;;;5.48;99.72
9969;BME280;5025;48.890;9.278;2024-01-07T01:01:08;98202.75;;;5.50;99.79
9969;BME280;5025;48.890;9.278;2024-01-07T01:03:33;98203.75;;;5.49;99.76
9969;BME280;5025;48.890;9.278;2024-01-07T01:05:58;98209.72;;;5.51;99.71
9969;BME280;5025;48.890;9.278;2024-01-07T01:08:23;98204.56;;;5.50;99.73
9969;BME280;5025;48.890;9.278;2024-01-07T01:10:49;98207.03;;;5.51;99.79
9969;BME280;5025;48.890;9.278;2024-01-07T01:13:14;98211.38;;;5.52;99.63
9969;BME280;5025;48.890;9.278;2024-01-07T01:15:39;98207.03;;;5.51;99.64
9969;BME280;5025;48.890;9.278;2024-01-07T01:18:05;98213.25;;;5.52;99.59
9969;BME280;5025;48.890;9.278;2024-01-07T01:20:30;98214.25;;;5.51;99.69
9969;BME280;5025;48.890;9.278;2024-01-07T01:22:55;98217.75;;;5.51;99.57
9969;BME280;5025;48.890;9.278;2024-01-07T01:25:21;98218.38;;;5.53;99.93
9969;BME280;5025;48.890;9.278;2024-01-07T01:27:46;98233.63;;;5.53;99.86
9969;BME280;5025;48.890;9.278;2024-01-07T01:30:11;98230.13;;;5.52;99.78
9969;BME280;5025;48.890;9.278;2024-01-07T01:32:38;98227.44;;;5.52;99.79
9969;BME280;5025;48.890;9.278;2024-01-07T01:35:05;98230.13;;;5.52;99.92
9969;BME280;5025;48.890;9.278;2024-01-07T01:37:30;98226.63;;;5.52;99.83
9969;BME280;5025;48.890;9.278;2024-01-07T01:39:57;98221.28;;;5.52;99.83
9969;BME280;5025;48.890;9.278;2024-01-07T01:42:23;98234.47;;;5.53;99.83
9969;BME280;5025;48.890;9.278;2024-01-07T01:44:48;98228.47;;;5.51;99.87
9969;BME280;5025;48.890;9.278;2024-01-07T01:47:13;98230.94;;;5.53;99.95
9969;BME280;5025;48.890;9.278;2024-01-07T01:49:39;98232.59;;;5.54;100.00
9969;BME280;5025;48.890;9.278;2024-01-07T01:52:05;98231.56;;;5.55;100.00
9969;BME280;5025;48.890;9.278;2024-01-07T01:54:30;98231.56;;;5.55;99.88
9969;BME280;5025;48.890;9.278;2024-01-07T01:56:56;98227.03;;;5.55;100.00
9969;BME280;5025;48.890;9.278;2024-01-07T01:59:22;98233.41;;;5.54;99.93
9969;BME280;5025;48.890;9.278;2024-01-07T02:01:48;98239.81;;;5.53;99.92
9969;BME280;5025;48.890;9.278;2024-01-07T02:04:14;98234.25;;;5.55;100.00
9969;BME280;5025;48.890;9.278;2024-01-07T02:06:40;98232.38;;;5.55;100.00
9969;BME280;5025;48.890;9.278;2024-01-07T02:09:05;98238.56;;;5.56;100.00
9969;BME280;5025;48.890;9.278;2024-01-07T02:11:30;98231.56;;;5.55;100.00
9969;BME280;5025;48.890;9.278;2024-01-07T02:13:56;98232.38;;;5.55;100.00
9969;BME280;5025;48.890;9.278;2024-01-07T02:16:21;98236.94;;;5.55;100.00
9969;BME280;5025;48.890;9.278;2024-01-07T02:18:46;98233.19;;;5.56;100.00
9969;BME280;5025;48.890;9.278;2024-01-07T02:21:14;98235.28;;;5.54;100.00
9969;BME280;5025;48.890;9.278;2024-01-07T02:23:40;98234.66;;;5.52;100.00
9969;BME280;5025;48.890;9.278;2024-01-07T02:26:05;98231.16;;;5.51;100.00
9969;BME280;5025;48.890;9.278;2024-01-07T02:28:32;98238.97;;;5.53;100.00
9969;BME280;5025;48.890;9.278;2024-01-07T02:30:57;98241.22;;;5.56;100.00
9969;BME280;5025;48.890;9.278;2024-01-07T02:33:22;98240.41;;;5.55;100.00
9969;BME280;5025;48.890;9.278;2024-01-07T02:35:48;98236.09;;;5.54;100.00
9969;BME280;5025;48.890;9.278;2024-01-07T02:38:13;98238.16;;;5.52;100.00
9969;BME280;5025;48.890;9.278;2024-01-07T02:40:38;98231.78;;;5.53;100.00
9969;BME280;5025;48.890;9.278;2024-01-07T02:43:03;98234.47;;;5.53;100.00
9969;BME280;5025;48.890;9.278;2024-01-07T02:45:29;98235.47;;;5.52;100.00
9969;BME280;5025;48.890;9.278;2024-01-07T02:47:54;98236.50;;;5.51;100.00
9969;BME280;5025;48.890;9.278;2024-01-07T02:50:19;98233.63;;;5.53;100.00
9969;BME280;5025;48.890;9.278;2024-01-07T02:52:45;98229.31;;;5.52;100.00
9969;BME280;5025;48.890;9.278;2024-01-07T02:55:10;98228.47;;;5.51;100.00
9969;BME280;5025;48.890;9.278;2024-01-07T02:57:35;98233.81;;;5.51;100.00
9969;BME280;5025;48.890;9.278;2024-01-07T03:00:01;98236.50;;;5.51;100.00
9969;BME280;5025;48.890;9.278;2024-01-07T03:02:27;98229.53;;;5.50;100.00
9969;BME280;5025;48.890;9.278;2024-01-07T03:04:53;98235.91;;;5.49;100.00
9969;BME280;5025;48.890;9.278;2024-01-07T03:07:18;98241.47;;;5.48;100.00
9969;BME280;5025;48.890;9.278;2024-01-07T03:09:43;98238.78;;;5.48;100.00
9969;BME280;5025;48.890;9.278;2024-01-07T03:12:08;98243.34;;;5.47;100.00
9969;BME280;5025;48.890;9.278;2024-01-07T03:14:33;98243.13;;;5.49;100.00
9969;BME280;5025;48.890;9.278;2024-01-07T03:16:59;98240.44;;;5.49;100.00
9969;BME280;5025;48.890;9.278;2024-01-07T03:19:24;98240.66;;;5.47;100.00
9969;BME280;5025;48.890;9.278;2024-01-07T03:21:50;98238.78;;;5.48;100.00
9969;BME280;5025;48.890;9.278;2024-01-07T03:24:16;98242.69;;;5.45;99.97
9969;BME280;5025;48.890;9.278;2024-01-07T03:26:41;98242.91;;;5.44;100.00
9969;BME280;5025;48.890;9.278;2024-01-07T03:29:06;98243.75;;;5.44;100.00
9969;BME280;5025;48.890;9.278;2024-01-07T03:31:31;98246.84;;;5.41;100.00
9969;BME280;5025;48.890;9.278;2024-01-07T03:33:57;98248.06;;;5.38;99.92
9969;BME280;5025;48.890;9.278;2024-01-07T03:36:22;98262.47;;;5.37;100.00
9969;BME280;5025;48.890;9.278;2024-01-07T03:38:47;98257.34;;;5.36;100.00
9969;BME280;5025;48.890;9.278;2024-01-07T03:41:16;98258.38;;;5.35;99.89
9969;BME280;5025;48.890;9.278;2024-01-07T03:43:43;98257.75;;;5.33;99.88
9969;BME280;5025;48.890;9.278;2024-01-07T03:46:08;98250.78;;;5.32;99.83
9969;BME280;5025;48.890;9.278;2024-01-07T03:48:34;98246.84;;;5.28;99.80
9969;BME280;5025;48.890;9.278;2024-01-07T03:50:59;98265.81;;;5.26;99.83
9969;BME280;5025;48.890;9.278;2024-01-07T03:53:24;98253.47;;;5.25;99.87
9969;BME280;5025;48.890;9.278;2024-01-07T03:55:49;98257.97;;;5.25;99.81
9969;BME280;5025;48.890;9.278;2024-01-07T03:58:15;98256.34;;;5.24;99.88
9969;BME280;5025;48.890;9.278;2024-01-07T04:00:40;98262.94;;;5.21;99.80
9969;BME280;5025;48.890;9.278;2024-01-07T04:03:05;98261.69;;;5.24;99.67
9969;BME280;5025;48.890;9.278;2024-01-07T04:05:30;98265.41;;;5.23;99.50
9969;BME280;5025;48.890;9.278;2024-01-07T04:07:56;98264.78;;;5.20;99.59
9969;BME280;5025;48.890;9.278;2024-01-07T04:10:21;98258.59;;;5.20;99.45
9969;BME280;5025;48.890;9.278;2024-01-07T04:12:46;98268.50;;;5.19;99.49
9969;BME280;5025;48.890;9.278;2024-01-07T04:15:12;98272.81;;;5.20;99.56
9969;BME280;5025;48.890;9.278;2024-01-07T04:17:37;98276.53;;;5.19;99.45
9969;BME280;5025;48.890;9.278;2024-01-07T04:20:03;98271.16;;;5.19;99.16
9969;BME280;5025;48.890;9.278;2024-01-07T04:22:28;98267.03;;;5.17;99.33
9969;BME280;5025;48.890;9.278;2024-01-07T04:24:53;98268.09;;;5.16;99.13
9969;BME280;5025;48.890;9.278;2024-01-07T04:27:19;98272.00;;;5.13;99.25
9969;BME280;5025;48.890;9.278;2024-01-07T04:29:44;98269.09;;;5.15;99.04
9969;BME280;5025;48.890;9.278;2024-01-07T04:32:09;98274.47;;;5.15;99.11
9969;BME280;5025;48.890;9.278;2024-01-07T04:34:34;98273.66;;;5.14;99.08
9969;BME280;5025;48.890;9.278;2024-01-07T04:37:00;98279.22;;;5.13;99.05
9969;BME280;5025;48.890;9.278;2024-01-07T04:39:25;98282.69;;;5.13;99.18
9969;BME280;5025;48.890;9.278;2024-01-07T04:41:51;98282.69;;;5.13;99.05
9969;BME280;5025;48.890;9.278;2024-01-07T04:44:16;98288.06;;;5.13;99.33
9969;BME280;5025;48.890;9.278;2024-01-07T04:46:41;98290.53;;;5.15;99.01
9969;BME280;5025;48.890;9.278;2024-01-07T04:49:07;98295.06;;;5.14;98.97
9969;BME280;5025;48.890;9.278;2024-01-07T04:51:35;98294.00;;;5.15;98.87
9969;BME280;5025;48.890;9.278;2024-01-07T04:54:03;98295.06;;;5.14;98.96
9969;BME280;5025;48.890;9.278;2024-01-07T04:56:28;98291.75;;;5.12;99.00
9969;BME280;5025;48.890;9.278;2024-01-07T04:58:53;98288.88;;;5.14;99.06
9969;BME280;5025;48.890;9.278;2024-01-07T05:01:19;98297.75;;;5.14;98.89
9969;BME280;5025;48.890;9.278;2024-01-07T05:03:44;98304.09;;;5.13;98.86
9969;BME280;5025;48.890;9.278;2024-01-07T05:06:10;98306.59;;;5.15;99.06
9969;BME280;5025;48.890;9.278;2024-01-07T05:08:36;98304.91;;;5.14;99.04
9969;BME280;5025;48.890;9.278;2024-01-07T05:11:02;98305.56;;;5.16;98.93
9969;BME280;5025;48.890;9.278;2024-01-07T05:13:27;98303.91;;;5.15;98.92
9969;BME280;5025;48.890;9.278;2024-01-07T05:15:52;98307.41;;;5.15;98.92
9969;BME280;5025;48.890;9.278;2024-01-07T05:18:24;98309.25;;;5.15;99.09
9969;BME280;5025;48.890;9.278;2024-01-07T05:20:50;98312.75;;;5.15;99.02
9969;BME280;5025;48.890;9.278;2024-01-07T05:23:16;98312.75;;;5.15;98.90
9969;BME280;5025;48.890;9.278;2024-01-07T05:25:45;98312.13;;;5.13;98.96
9969;BME280;5025;48.890;9.278;2024-01-07T05:28:11;98322.25;;;5.11;98.83
9969;BME280;5025;48.890;9.278;2024-01-07T05:30:38;98315.22;;;5.10;98.98
9969;BME280;5025;48.890;9.278;2024-01-07T05:33:04;98316.03;;;5.11;98.98
9969;BME280;5025;48.890;9.278;2024-01-07T05:35:29;98320.38;;;5.12;98.89
9969;BME280;5025;48.890;9.278;2024-01-07T05:37:55;98327.59;;;5.11;98.95
9969;BME280;5025;48.890;9.278;2024-01-07T05:40:20;98316.44;;;5.08;98.83
9969;BME280;5025;48.890;9.278;2024-01-07T05:42:45;98319.34;;;5.06;99.10
9969;BME280;5025;48.890;9.278;2024-01-07T05:45:10;98325.72;;;5.05;99.06
9969;BME280;5025;48.890;9.278;2024-01-07T05:47:36;98320.16;;;5.07;99.13
9969;BME280;5025;48.890;9.278;2024-01-07T05:50:01;98329.81;;;5.08;99.05
9969;BME280;5025;48.890;9.278;2024-01-07T05:52:27;98333.34;;;5.08;99.12
9969;BME280;5025;48.890;9.278;2024-01-07T05:54:52;98329.81;;;5.08;98.89
9969;BME280;5025;48.890;9.278;2024-01-07T05:57:18;98340.34;;;5.09;99.15
9969;BME280;5025;48.890;9.278;2024-01-07T05:59:43;98344.25;;;5.07;99.04
9969;BME280;5025;48.890;9.278;2024-01-07T06:02:09;98345.88;;;5.08;98.89
9969;BME280;5025;48.890;9.278;2024-01-07T06:04:34;98342.19;;;5.09;99.02
9969;BME280;5025;48.890;9.278;2024-01-07T06:06:59;98344.06;;;5.08;98.92
9969;BME280;5025;48.890;9.278;2024-01-07T06:09:25;98339.50;;;5.09;99.03
9969;BME280;5025;48.890;9.278;2024-01-07T06:11:50;98346.09;;;5.06;98.92
9969;BME280;5025;48.890;9.278;2024-01-07T06:14:15;98346.94;;;5.07;98.95
9969;BME280;5025;48.890;9.278;2024-01-07T06:16:40;98346.94;;;5.07;98.95
9969;BME280;5025;48.890;9.278;2024-01-07T06:19:07;98347.75;;;5.07;99.08
9969;BME280;5025;48.890;9.278;2024-01-07T06:21:32;98352.09;;;5.08;98.98
9969;BME280;5025;48.890;9.278;2024-01-07T06:23:57;98355.56;;;5.09;99.00
9969;BME280;5025;48.890;9.278;2024-01-07T06:26:22;98360.72;;;5.10;98.80
9969;BME280;5025;48.890;9.278;2024-01-07T06:28:47;98362.78;;;5.08;98.76
9969;BME280;5025;48.890;9.278;2024-01-07T06:31:13;98363.00;;;5.07;98.79
9969;BME280;5025;48.890;9.278;2024-01-07T06:33:38;98363.59;;;5.09;98.58
9969;BME280;5025;48.890;9.278;2024-01-07T06:36:03;98366.28;;;5.09;98.57
9969;BME280;5025;48.890;9.278;2024-01-07T06:38:29;98368.97;;;5.09;98.72
9969;BME280;5025;48.890;9.278;2024-01-07T06:40:54;98368.53;;;5.05;98.68
9969;BME280;5025;48.890;9.278;2024-01-07T06:43:20;98379.25;;;5.05;98.74
9969;BME280;5025;48.890;9.278;2024-01-07T06:45:45;98376.56;;;5.05;98.36
9969;BME280;5025;48.890;9.278;2024-01-07T06:48:10;98387.28;;;5.05;98.34
9969;BME280;5025;48.890;9.278;2024-01-07T06:50:36;98386.44;;;5.05;98.74
9969;BME280;5025;48.890;9.278;2024-01-07T06:53:01;98385.63;;;5.04;98.56
9969;BME280;5025;48.890;9.278;2024-01-07T06:55:26;98388.69;;;5.01;98.61
9969;BME280;5025;48.890;9.278;2024-01-07T06:57:51;98391.38;;;5.01;98.71
9969;BME280;5025;48.890;9.278;2024-01-07T07:00:17;98391.38;;;5.01;98.61
9969;BME280;5025;48.890;9.278;2024-01-07T07:02:43;98400.44;;;5.00;98.54
9969;BME280;5025;48.890;9.278;2024-01-07T07:05:08;98410.31;;;4.99;98.32
9969;BME280;5025;48.890;9.278;2024-01-07T07:07:34;98407.84;;;4.98;98.27
9969;BME280;5025;48.890;9.278;2024-01-07T07:09:59;98406.81;;;4.99;98.30
9969;BME280;5025;48.890;9.278;2024-01-07T07:12:24;98410.31;;;4.99;98.32
9969;BME280;5025;48.890;9.278;2024-01-07T07:14:49;98418.53;;;4.98;98.29
9969;BME280;5025;48.890;9.278;2024-01-07T07:17:15;98423.91;;;4.98;97.90
9969;BME280;5025;48.890;9.278;2024-01-07T07:19:40;98430.91;;;4.99;97.91
9969;BME280;5025;48.890;9.278;2024-01-07T07:22:05;98429.25;;;4.98;97.83
9969;BME280;5025;48.890;9.278;2024-01-07T07:24:31;98437.47;;;4.96;97.80
9969;BME280;5025;48.890;9.278;2024-01-07T07:26:56;98436.88;;;4.94;97.61
9969;BME280;5025;48.890;9.278;2024-01-07T07:29:21;98444.50;;;4.97;97.44
9969;BME280;5025;48.890;9.278;2024-01-07T07:31:46;98452.50;;;4.97;97.37
9969;BME280;5025;48.890;9.278;2024-01-07T07:34:11;98446.31;;;4.97;97.24
9969;BME280;5025;48.890;9.278;2024-01-07T07:36:37;98454.34;;;4.97;97.07
9969;BME280;5025;48.890;9.278;2024-01-07T07:39:02;98456.22;;;4.96;96.94
9969;BME280;5025;48.890;9.278;2024-01-07T07:41:27;98462.56;;;4.95;96.81
9969;BME280;5025;48.890;9.278;2024-01-07T07:43:53;98460.75;;;4.96;96.73
9969;BME280;5025;48.890;9.278;2024-01-07T07:46:19;98454.75;;;4.94;96.60
9969;BME280;5025;48.890;9.278;2024-01-07T07:48:44;98469.16;;;4.93;96.41
9969;BME280;5025;48.890;9.278;2024-01-07T07:51:10;98469.56;;;4.90;96.14
9969;BME280;5025;48.890;9.278;2024-01-07T07:53:38;98471.41;;;4.89;96.02
9969;BME280;5025;48.890;9.278;2024-01-07T07:56:04;98470.59;;;4.89;95.89
9969;BME280;5025;48.890;9.278;2024-01-07T07:58:29;98480.28;;;4.90;95.71
9969;BME280;5025;48.890;9.278;2024-01-07T08:00:54;98479.44;;;4.89;95.54
9969;BME280;5025;48.890;9.278;2024-01-07T08:03:20;98486.63;;;4.89;95.32
9969;BME280;5025;48.890;9.278;2024-01-07T08:05:45;98484.97;;;4.88;95.05
9969;BME280;5025;48.890;9.278;2024-01-07T08:08:11;98484.38;;;4.85;95.01
9969;BME280;5025;48.890;9.278;2024-01-07T08:10:39;98491.78;;;4.83;94.71
9969;BME280;5025;48.890;9.278;2024-01-07T08:13:04;98490.72;;;4.84;94.63
9969;BME280;5025;48.890;9.278;2024-01-07T08:15:31;98494.25;;;4.85;94.34
9969;BME280;5025;48.890;9.278;2024-01-07T08:17:56;98499.78;;;4.83;94.21
9969;BME280;5025;48.890;9.278;2024-01-07T08:20:22;98502.03;;;4.80;94.08
9969;BME280;5025;48.890;9.278;2024-01-07T08:22:47;98505.75;;;4.79;93.89
9969;BME280;5025;48.890;9.278;2024-01-07T08:25:12;98500.41;;;4.79;93.69
9969;BME280;5025;48.890;9.278;2024-01-07T08:27:40;98509.44;;;4.78;93.45
9969;BME280;5025;48.890;9.278;2024-01-07T08:30:06;98504.09;;;4.78;93.28
9969;BME280;5025;48.890;9.278;2024-01-07T08:32:31;98506.13;;;4.76;93.19
9969;BME280;5025;48.890;9.278;2024-01-07T08:34:57;98505.28;;;4.75;93.26
9969;BME280;5025;48.890;9.278;2024-01-07T08:37:22;98511.03;;;4.72;92.90
9969;BME280;5025;48.890;9.278;2024-01-07T08:39:47;98512.69;;;4.73;92.51
9969;BME280;5025;48.890;9.278;2024-01-07T08:42:12;98509.22;;;4.73;92.28
9969;BME280;5025;48.890;9.278;2024-01-07T08:44:38;98507.53;;;4.72;92.19
9969;BME280;5025;48.890;9.278;2024-01-07T08:47:04;98513.72;;;4.72;91.86
9969;BME280;5025;48.890;9.278;2024-01-07T08:49:30;98520.91;;;4.72;92.08
9969;BME280;5025;48.890;9.278;2024-01-07T08:51:57;98522.13;;;4.69;91.52
9969;BME280;5025;48.890;9.278;2024-01-07T08:54:23;98514.75;;;4.71;91.28
9969;BME280;5025;48.890;9.278;2024-01-07T08:56:49;98521.91;;;4.64;90.85
9969;BME280;5025;48.890;9.278;2024-01-07T08:59:14;98519.84;;;4.66;90.47
9969;BME280;5025;48.890;9.278;2024-01-07T09:01:39;98527.69;;;4.67;90.30
9969;BME280;5025;48.890;9.278;2024-01-07T09:04:05;98529.34;;;4.69;90.00
9969;BME280;5025;48.890;9.278;2024-01-07T09:06:30;98537.56;;;4.67;89.71
9969;BME280;5025;48.890;9.278;2024-01-07T09:08:55;98536.75;;;4.66;89.66
9969;BME280;5025;48.890;9.278;2024-01-07T09:11:21;98549.06;;;4.67;89.35
9969;BME280;5025;48.890;9.278;2024-01-07T09:13:47;98551.31;;;4.64;89.04
9969;BME280;5025;48.890;9.278;2024-01-07T09:16:15;98558.06;;;4.60;88.29
9969;BME280;5025;48.890;9.278;2024-01-07T09:18:41;98559.53;;;4.62;88.04
9969;BME280;5025;48.890;9.278;2024-01-07T09:21:06;98563.88;;;4.63;87.58
9969;BME280;5025;48.890;9.278;2024-01-07T09:23:32;98558.34;;;4.65;87.45
9969;BME280;5025;48.890;9.278;2024-01-07T09:25:59;98563.44;;;4.60;86.64
9969;BME280;5025;48.890;9.278;2024-01-07T09:28:24;98567.56;;;4.62;85.79
9969;BME280;5025;48.890;9.278;2024-01-07T09:30:49;98574.38;;;4.65;85.63
9969;BME280;5025;48.890;9.278;2024-01-07T09:33:15;98575.63;;;4.69;85.42
9969;BME280;5025;48.890;9.278;2024-01-07T09:35:40;98580.34;;;4.67;85.01
9969;BME280;5025;48.890;9.278;2024-01-07T09:38:05;98580.16;;;4.69;84.72
9969;BME280;5025;48.890;9.278;2024-01-07T09:40:31;98578.69;;;4.66;84.41
9969;BME280;5025;48.890;9.278;2024-01-07T09:42:56;98589.19;;;4.67;83.82
9969;BME280;5025;48.890;9.278;2024-01-07T09:45:22;98592.91;;;4.66;83.59
9969;BME280;5025;48.890;9.278;2024-01-07T09:47:48;98586.91;;;4.64;82.98
9969;BME280;5025;48.890;9.278;2024-01-07T09:50:14;98601.31;;;4.63;82.89
9969;BME280;5025;48.890;9.278;2024-01-07T09:52:43;98589.38;;;4.66;82.88
9969;BME280;5025;48.890;9.278;2024-01-07T09:55:09;98582.81;;;4.62;82.24
9969;BME280;5025;48.890;9.278;2024-01-07T09:57:34;98581.75;;;4.63;82.29
9969;BME280;5025;48.890;9.278;2024-01-07T10:00:03;98584.03;;;4.66;81.91
9969;BME280;5025;48.890;9.278;2024-01-07T10:02:29;98582.22;;;4.66;81.66
9969;BME280;5025;48.890;9.278;2024-01-07T10:04:55;98586.53;;;4.67;81.41
9969;BME280;5025;48.890;9.278;2024-01-07T10:07:20;98586.31;;;4.69;81.05
9969;BME280;5025;48.890;9.278;2024-01-07T10:09:45;98582.63;;;4.70;80.92
9969;BME280;5025;48.890;9.278;2024-01-07T10:12:11;98583.66;;;4.69;80.61
9969;BME280;5025;48.890;9.278;2024-01-07T10:14:39;98586.91;;;4.64;80.45
9969;BME280;5025;48.890;9.278;2024-01-07T10:17:15;98582.59;;;4.63;80.06
9969;BME280;5025;48.890;9.278;2024-01-07T10:19:43;98584.63;;;4.61;79.90
9969;BME280;5025;48.890;9.278;2024-01-07T10:22:08;98582.16;;;4.60;79.23
9969;BME280;5025;48.890;9.278;2024-01-07T10:24:38;98583.81;;;4.61;79.24
9969;BME280;5025;48.890;9.278;2024-01-07T10:27:04;98585.47;;;4.62;78.97
9969;BME280;5025;48.890;9.278;2024-01-07T10:29:30;98592.03;;;4.59;78.89
9969;BME280;5025;48.890;9.278;2024-01-07T10:32:00;98592.84;;;4.60;78.40
9969;BME280;5025;48.890;9.278;2024-01-07T10:34:30;98590.16;;;4.60;78.31
9969;BME280;5025;48.890;9.278;2024-01-07T10:36:58;98599.84;;;4.61;78.05
9969;BME280;5025;48.890;9.278;2024-01-07T10:39:23;98587.97;;;4.63;77.91
9969;BME280;5025;48.890;9.278;2024-01-07T10:41:49;98597.56;;;4.58;77.30
9969;BME280;5025;48.890;9.278;2024-01-07T10:44:15;98599.25;;;4.59;77.20
9969;BME280;5025;48.890;9.278;2024-01-07T10:46:41;98597.78;;;4.56;76.91
9969;BME280;5025;48.890;9.278;2024-01-07T10:49:19;98596.38;;;4.60;76.83
9969;BME280;5025;48.890;9.278;2024-01-07T10:51:53;98598.59;;;4.57;76.25
9969;BME280;5025;48.890;9.278;2024-01-07T10:54:21;98603.13;;;4.56;76.08
9969;BME280;5025;48.890;9.278;2024-01-07T10:56:50;98602.91;;;4.58;75.88
9969;BME280;5025;48.890;9.278;2024-01-07T10:59:19;98599.63;;;4.56;75.90
9969;BME280;5025;48.890;9.278;2024-01-07T11:01:45;98604.31;;;4.54;75.69
9969;BME280;5025;48.890;9.278;2024-01-07T11:05:17;98600.63;;;4.55;75.60
9969;BME280;5025;48.890;9.278;2024-01-07T11:07:21;98602.31;;;4.56;75.37
9969;BME280;5025;48.890;9.278;2024-01-07T11:12:55;98604.31;;;4.54;75.00
9969;BME280;5025;48.890;9.278;2024-01-07T11:18:20;98611.34;;;4.55;74.59
9969;BME280;5025;48.890;9.278;2024-01-07T11:20:46;98614.00;;;4.55;74.61
9969;BME280;5025;48.890;9.278;2024-01-07T11:23:32;98610.91;;;4.51;74.21
9969;BME280;5025;48.890;9.278;2024-01-07T11:26:05;98611.09;;;4.49;74.22
9969;BME280;5025;48.890;9.278;2024-01-07T11:28:54;98614.16;;;4.46;74.04
9969;BME280;5025;48.890;9.278;2024-01-07T11:31:43;98612.50;;;4.45;74.06
9969;BME280;5025;48.890;9.278;2024-01-07T11:34:08;98609.19;;;4.43;74.09
9969;BME280;5025;48.890;9.278;2024-01-07T11:36:37;98623.19;;;4.45;73.63
9969;BME280;5025;48.890;9.278;2024-01-07T11:39:03;98626.88;;;4.44;73.63
9969;BME280;5025;48.890;9.278;2024-01-07T11:41:31;98624.38;;;4.43;73.46
9969;BME280;5025;48.890;9.278;2024-01-07T11:43:59;98614.94;;;4.40;73.46
9969;BME280;5025;48.890;9.278;2024-01-07T11:46:26;98618.00;;;4.37;73.18
9969;BME280;5025;48.890;9.278;2024-01-07T11:48:58;98615.31;;;4.37;73.29
9969;BME280;5025;48.890;9.278;2024-01-07T11:51:25;98612.00;;;4.35;73.09
9969;BME280;5025;48.890;9.278;2024-01-07T11:53:51;98619.38;;;4.33;73.08
9969;BME280;5025;48.890;9.278;2024-01-07T11:56:17;98623.53;;;4.36;72.99
9969;BME280;5025;48.890;9.278;2024-01-07T11:58:42;98631.34;;;4.37;73.02
9969;BME280;5025;48.890;9.278;2024-01-07T12:01:08;98625.63;;;4.40;72.80
9969;BME280;5025;48.890;9.278;2024-01-07T12:03:33;98624.97;;;4.38;72.80
9969;BME280;5025;48.890;9.278;2024-01-07T12:05:59;98619.19;;;4.35;72.95
9969;BME280;5025;48.890;9.278;2024-01-07T12:08:24;98627.41;;;4.33;72.74
9969;BME280;5025;48.890;9.278;2024-01-07T12:10:49;98625.53;;;4.34;72.97
9969;BME280;5025;48.890;9.278;2024-01-07T12:13:15;98630.91;;;4.34;72.72
9969;BME280;5025;48.890;9.278;2024-01-07T12:15:41;98628.78;;;4.29;72.55
9969;BME280;5025;48.890;9.278;2024-01-07T12:18:07;98629.19;;;4.26;72.48
9969;BME280;5025;48.890;9.278;2024-01-07T12:20:32;98632.22;;;4.23;72.39
9969;BME280;5025;48.890;9.278;2024-01-07T12:23:05;98634.03;;;4.16;72.08
9969;BME280;5025;48.890;9.278;2024-01-07T12:25:30;98638.53;;;4.15;72.04
9969;BME280;5025;48.890;9.278;2024-01-07T12:27:55;98630.13;;;4.18;71.67
9969;BME280;5025;48.890;9.278;2024-01-07T12:30:20;98640.00;;;4.18;71.88
9969;BME280;5025;48.890;9.278;2024-01-07T12:32:46;98635.47;;;4.18;71.80
9969;BME280;5025;48.890;9.278;2024-01-07T12:35:12;98640.19;;;4.16;71.69
9969;BME280;5025;48.890;9.278;2024-01-07T12:37:37;98638.47;;;4.08;71.73
9969;BME280;5025;48.890;9.278;2024-01-07T12:40:03;98642.16;;;4.07;71.50
9969;BME280;5025;48.890;9.278;2024-01-07T12:42:29;98638.22;;;4.03;71.34
9969;BME280;5025;48.890;9.278;2024-01-07T12:44:54;98642.09;;;4.01;71.31
9969;BME280;5025;48.890;9.278;2024-01-07T12:47:20;98641.09;;;4.02;71.21
9969;BME280;5025;48.890;9.278;2024-01-07T12:49:45;98646.81;;;3.99;71.03
9969;BME280;5025;48.890;9.278;2024-01-07T12:52:10;98637.75;;;4.00;71.13
9969;BME280;5025;48.890;9.278;2024-01-07T12:54:37;98643.28;;;3.98;70.95
9969;BME280;5025;48.890;9.278;2024-01-07T12:57:03;98650.31;;;3.99;71.00
9969;BME280;5025;48.890;9.278;2024-01-07T12:59:28;98648.00;;;3.96;70.97
9969;BME280;5025;48.890;9.278;2024-01-07T13:01:54;98653.53;;;3.94;70.91
9969;BME280;5025;48.890;9.278;2024-01-07T13:04:19;98655.59;;;3.92;71.02
9969;BME280;5025;48.890;9.278;2024-01-07T13:06:45;98654.78;;;3.92;70.51
9969;BME280;5025;48.890;9.278;2024-01-07T13:09:10;98653.94;;;3.91;70.68
9969;BME280;5025;48.890;9.278;2024-01-07T13:11:36;98665.00;;;3.88;70.74
9969;BME280;5025;48.890;9.278;2024-01-07T13:14:01;98663.91;;;3.83;70.72
9969;BME280;5025;48.890;9.278;2024-01-07T13:16:27;98673.13;;;3.80;70.68
9969;BME280;5025;48.890;9.278;2024-01-07T13:18:53;98680.94;;;3.82;70.64
9969;BME280;5025;48.890;9.278;2024-01-07T13:21:18;98675.78;;;3.80;70.50
9969;BME280;5025;48.890;9.278;2024-01-07T13:23:45;98683.00;;;3.80;70.48
9969;BME280;5025;48.890;9.278;2024-01-07T13:26:10;98685.66;;;3.80;70.50
9969;BME280;5025;48.890;9.278;2024-01-07T13:28:36;98679.03;;;3.75;70.83
9969;BME280;5025;48.890;9.278;2024-01-07T13:31:01;98684.19;;;3.77;70.57